Time;durP1;ratioP1;P1;durP2;ratioP2;P2;SDS_P1;SDS_P2;PMS_P1;PMS_P2;Temp;Humidity;BMP_temperature;BMP_pressure;BME280_temperature;BME280_humidity;BME280_pressure;Samples;Min_cycle;Max_cycle;Signal;HPM_P1;HPM_P2
2021/03/20 00:00:37;;;;;;;2.23;2.03;;;-2.10;99.90;;;;;;5035129;28;20547;-72
2021/03/20 00:03:03;;;;;;;2.33;1.93;;;-2.00;99.90;;;;;;5035625;28;20186;-73
2021/03/20 00:05:29;;;;;;;5.67;2.77;;;-1.90;99.90;;;;;;5037568;28;20402;-73
2021/03/20 00:07:55;;;;;;;4.17;2.60;;;-2.00;99.90;;;;;;5038271;28;20507;-73
2021/03/20 00:10:23;;;;;;;2.97;1.90;;;-2.00;99.90;;;;;;5037181;28;20663;-73
2021/03/20 00:12:50;;;;;;;3.97;2.43;;;-1.90;99.90;;;;;;5026073;28;20751;-71
2021/03/20 00:15:21;;;;;;;3.77;2.30;;;-1.90;99.90;;;;;;5031461;28;20417;-71
2021/03/20 00:17:47;;;;;;;4.93;2.20;;;-1.90;99.90;;;;;;5024932;28;20407;-71
2021/03/20 00:20:18;;;;;;;2.17;1.97;;;-1.90;99.90;;;;;;5025165;28;20475;-71
2021/03/20 00:22:44;;;;;;;2.13;1.93;;;-1.90;99.90;;;;;;5022347;28;20478;-72
2021/03/20 00:25:10;;;;;;;5.80;2.63;;;-1.90;99.90;;;;;;5015352;28;20446;-71
2021/03/20 00:27:35;;;;;;;3.27;2.27;;;-1.80;99.90;;;;;;5014917;28;20251;-72
2021/03/20 00:30:03;;;;;;;2.50;2.30;;;-1.80;99.90;;;;;;5015253;28;20551;-71
2021/03/20 00:32:28;;;;;;;2.17;1.97;;;-1.80;99.90;;;;;;5032786;28;20271;-72
2021/03/20 00:34:54;;;;;;;4.60;2.43;;;-1.80;99.90;;;;;;5034762;28;20418;-70
2021/03/20 00:37:19;;;;;;;2.73;2.00;;;-1.80;99.90;;;;;;5016596;28;20176;-71
2021/03/20 00:39:45;;;;;;;2.10;1.90;;;-1.80;99.90;;;;;;5034622;28;20191;-71
2021/03/20 00:42:11;;;;;;;5.00;2.40;;;-1.80;99.90;;;;;;5034745;28;20586;-71
2021/03/20 00:44:37;;;;;;;3.73;2.50;;;-1.80;99.90;;;;;;5034188;28;20171;-72
2021/03/20 00:47:03;;;;;;;3.50;2.30;;;-1.80;99.90;;;;;;5034192;28;20867;-72
2021/03/20 00:49:29;;;;;;;2.83;2.53;;;-1.80;99.90;;;;;;5034732;28;20855;-72
2021/03/20 00:51:55;;;;;;;2.87;1.73;;;-1.80;99.90;;;;;;5034265;28;20427;-72
2021/03/20 00:54:21;;;;;;;3.20;2.10;;;-1.80;99.90;;;;;;5034209;28;20217;-72
2021/03/20 00:56:46;;;;;;;2.37;2.20;;;-1.80;99.90;;;;;;5033211;28;20414;-72
2021/03/20 00:59:12;;;;;;;3.60;2.50;;;-1.80;99.90;;;;;;5033386;28;20464;-72
2021/03/20 01:01:37;;;;;;;13.13;2.67;;;-1.70;99.90;;;;;;5034140;28;20598;-72
2021/03/20 01:04:03;;;;;;;3.93;1.77;;;-1.70;99.90;;;;;;5034264;28;20168;-72
2021/03/20 01:06:29;;;;;;;1.87;1.70;;;-1.70;99.90;;;;;;5033761;28;20175;-72
2021/03/20 01:08:56;;;;;;;2.67;2.07;;;-1.70;99.90;;;;;;5032357;28;20179;-72
2021/03/20 01:11:24;;;;;;;2.00;1.90;;;-1.60;99.90;;;;;;5033599;28;20195;-72
2021/03/20 01:13:49;;;;;;;4.13;2.03;;;-1.70;99.90;;;;;;5034042;28;20444;-72
2021/03/20 01:16:15;;;;;;;2.10;1.87;;;-1.60;99.90;;;;;;5033584;28;20517;-71
2021/03/20 01:18:41;;;;;;;4.73;2.43;;;-1.60;99.90;;;;;;5016139;28;20655;-72
2021/03/20 01:21:08;;;;;;;1.63;1.53;;;-1.60;99.90;;;;;;5033570;28;20255;-71
2021/03/20 01:23:33;;;;;;;2.20;1.97;;;-1.60;99.90;;;;;;5033752;28;20910;-73
2021/03/20 01:25:59;;;;;;;2.57;1.83;;;-1.60;99.90;;;;;;5033726;28;20422;-72
2021/03/20 01:28:30;;;;;;;3.87;1.87;;;-1.60;99.90;;;;;;5033451;28;20175;-71
2021/03/20 01:30:56;;;;;;;3.60;2.13;;;-1.60;99.90;;;;;;5025478;28;20485;-72
2021/03/20 01:33:22;;;;;;;3.50;2.30;;;-1.60;99.90;;;;;;5021128;28;20429;-72
2021/03/20 01:35:48;;;;;;;2.10;1.57;;;-1.60;99.90;;;;;;5033444;28;20414;-72
2021/03/20 01:38:14;;;;;;;3.17;2.03;;;-1.60;99.90;;;;;;5033229;28;20210;-72
2021/03/20 01:40:41;;;;;;;2.03;1.60;;;-1.70;99.90;;;;;;5033233;28;20489;-72
2021/03/20 01:43:07;;;;;;;2.27;1.80;;;-1.60;99.90;;;;;;5034354;28;20410;-72
2021/03/20 01:45:36;;;;;;;2.20;1.70;;;-1.60;99.90;;;;;;5033267;28;20797;-72
2021/03/20 01:48:12;;;;;;;1.50;1.40;;;-1.60;99.90;;;;;;5032970;28;20497;-72
2021/03/20 01:50:59;;;;;;;1.97;1.87;;;-1.60;99.90;;;;;;5026697;28;20441;-71
2021/03/20 01:53:34;;;;;;;2.47;1.87;;;-1.60;99.90;;;;;;5033225;28;20491;-72
2021/03/20 01:56:01;;;;;;;2.03;1.93;;;-1.50;99.90;;;;;;5015456;28;20902;-72
2021/03/20 01:58:29;;;;;;;3.20;2.07;;;-1.50;99.90;;;;;;5033207;28;20410;-71
2021/03/20 02:01:05;;;;;;;1.73;1.63;;;-1.50;99.90;;;;;;5032941;28;20466;-71
2021/03/20 02:03:31;;;;;;;2.53;1.80;;;-1.50;99.90;;;;;;5036730;28;20853;-73
2021/03/20 02:05:59;;;;;;;3.70;2.20;;;-1.50;99.90;;;;;;5032127;28;20521;-72
2021/03/20 02:08:25;;;;;;;2.20;1.80;;;-1.50;99.90;;;;;;5015947;28;20416;-73
2021/03/20 02:10:54;;;;;;;2.70;2.33;;;-1.50;99.90;;;;;;5036014;28;20449;-74
2021/03/20 02:13:35;;;;;;;2.30;1.60;;;-1.50;99.90;;;;;;5035496;28;20266;-72
2021/03/20 02:16:09;;;;;;;2.47;1.63;;;-1.50;99.90;;;;;;5032975;28;20422;-71
2021/03/20 02:18:48;;;;;;;2.07;1.73;;;-1.40;99.90;;;;;;5028081;28;20470;-73
2021/03/20 02:21:20;;;;;;;5.20;1.90;;;-1.50;99.90;;;;;;5013547;28;20454;-70
2021/03/20 02:24:17;;;;;;;2.30;1.70;;;-1.50;99.90;;;;;;5013323;28;20824;-71
2021/03/20 02:26:43;;;;;;;1.83;1.63;;;-1.40;99.90;;;;;;5012494;28;20403;-72
2021/03/20 02:29:30;;;;;;;3.03;2.20;;;-1.40;99.90;;;;;;5013191;28;20888;-71
2021/03/20 02:32:17;;;;;;;6.93;2.20;;;-1.40;99.90;;;;;;5028676;28;20199;-71
2021/03/20 02:35:20;;;;;;;2.50;2.17;;;-1.40;99.90;;;;;;5014781;28;20434;-71
2021/03/20 02:37:54;;;;;;;2.90;1.90;;;-1.40;99.90;;;;;;5012545;28;20403;-72
2021/03/20 02:40:40;;;;;;;3.03;1.50;;;-1.40;99.90;;;;;;5012502;28;20548;-71
2021/03/20 02:43:39;;;;;;;8.17;1.87;;;-1.40;99.90;;;;;;5012669;28;20891;-71
2021/03/20 02:46:26;;;;;;;5.83;2.80;;;-1.40;99.90;;;;;;5028795;28;20489;-71
2021/03/20 02:49:26;;;;;;;7.33;2.07;;;-1.30;99.90;;;;;;5027443;28;20414;-71
2021/03/20 02:52:17;;;;;;;2.50;1.73;;;-1.30;99.90;;;;;;5031939;28;21112;-72
2021/03/20 02:54:57;;;;;;;2.40;2.07;;;-1.40;99.90;;;;;;5031021;28;20833;-73
2021/03/20 02:57:46;;;;;;;7.30;2.03;;;-1.30;99.90;;;;;;5031989;28;20433;-71
2021/03/20 03:00:25;;;;;;;3.50;1.93;;;-1.30;99.90;;;;;;5031855;28;20833;-71
2021/03/20 03:02:54;;;;;;;6.27;2.40;;;-1.30;99.90;;;;;;5032030;28;20417;-72
2021/03/20 03:05:23;;;;;;;2.23;1.60;;;-1.30;99.90;;;;;;5031940;28;20493;-71
2021/03/20 03:08:01;;;;;;;3.27;2.53;;;-1.30;99.90;;;;;;5031724;28;20897;-71
2021/03/20 03:10:29;;;;;;;4.43;1.90;;;-1.30;99.90;;;;;;5021447;28;20451;-71
2021/03/20 03:13:03;;;;;;;2.07;1.83;;;-1.20;99.90;;;;;;5012140;28;20549;-71
2021/03/20 03:15:36;;;;;;;4.47;2.40;;;-1.20;99.90;;;;;;5012113;28;20402;-70
2021/03/20 03:18:10;;;;;;;3.27;2.50;;;-1.30;99.90;;;;;;5012128;28;20407;-71
2021/03/20 03:20:46;;;;;;;2.10;1.90;;;-1.20;99.90;;;;;;5013607;28;20476;-72
2021/03/20 03:23:18;;;;;;;1.43;1.33;;;-1.20;99.90;;;;;;5014253;28;20411;-71
2021/03/20 03:25:48;;;;;;;2.07;1.87;;;-1.30;99.90;;;;;;5031894;28;20493;-72
2021/03/20 03:28:18;;;;;;;4.00;2.30;;;-1.30;99.90;;;;;;5031377;28;20442;-72
2021/03/20 03:30:44;;;;;;;1.80;1.70;;;-1.30;99.90;;;;;;5031466;28;21005;-73
2021/03/20 03:33:20;;;;;;;6.43;2.17;;;-1.20;99.90;;;;;;5031625;28;20509;-72
2021/03/20 03:35:50;;;;;;;3.40;1.60;;;-1.20;99.90;;;;;;5031638;28;20836;-71
2021/03/20 03:38:24;;;;;;;3.70;2.17;;;-1.20;99.90;;;;;;5031247;28;20417;-71
2021/03/20 03:40:56;;;;;;;2.37;1.70;;;-1.20;99.90;;;;;;5031289;28;20457;-72
2021/03/20 03:43:21;;;;;;;2.40;2.17;;;-1.20;99.90;;;;;;5031717;28;20417;-72
2021/03/20 03:45:47;;;;;;;2.80;1.80;;;-1.20;99.90;;;;;;5031554;28;20490;-72
2021/03/20 03:48:16;;;;;;;4.10;2.10;;;-1.10;99.90;;;;;;5029437;28;20180;-72
2021/03/20 03:50:42;;;;;;;4.90;2.23;;;-1.10;99.90;;;;;;5025132;28;20432;-72
2021/03/20 03:53:09;;;;;;;4.50;1.87;;;-1.10;99.90;;;;;;5031567;28;20858;-72
2021/03/20 03:55:35;;;;;;;1.93;1.80;;;-1.20;99.90;;;;;;5031501;28;20418;-71
2021/03/20 03:58:27;;;;;;;2.03;1.83;;;-1.20;99.90;;;;;;5031126;28;20418;-71
2021/03/20 04:01:18;;;;;;;8.07;3.80;;;-1.10;99.90;;;;;;5031103;28;21024;-71
2021/03/20 04:04:12;;;;;;;2.10;1.90;;;-1.10;99.90;;;;;;5031314;28;20398;-72
2021/03/20 04:06:50;;;;;;;1.60;1.50;;;-1.10;99.90;;;;;;5031166;28;20883;-71
2021/03/20 04:10:00;;;;;;;2.97;2.13;;;-1.10;99.90;;;;;;5031486;28;20410;-74
2021/03/20 04:12:42;;;;;;;3.33;2.17;;;-1.20;99.90;;;;;;5011673;28;20417;-71
2021/03/20 04:15:18;;;;;;;4.00;2.50;;;-1.20;99.90;;;;;;5011601;28;20774;-72
2021/03/20 04:17:53;;;;;;;3.67;1.73;;;-1.10;99.90;;;;;;5011332;28;20461;-72
2021/03/20 04:20:24;;;;;;;3.47;1.97;;;-1.10;99.90;;;;;;5019400;28;20477;-71
2021/03/20 04:22:50;;;;;;;1.93;1.67;;;-1.10;99.90;;;;;;5013892;28;20430;-73
2021/03/20 04:25:33;;;;;;;2.90;1.90;;;-1.10;99.90;;;;;;5013251;28;20884;-73
2021/03/20 04:28:12;;;;;;;5.60;2.30;;;-1.10;99.90;;;;;;5012957;28;20176;-73
2021/03/20 04:30:39;;;;;;;6.03;2.10;;;-1.10;99.90;;;;;;5018801;28;20501;-72
2021/03/20 04:33:16;;;;;;;4.87;2.67;;;-1.10;99.90;;;;;;5034895;28;20809;-72
2021/03/20 04:35:48;;;;;;;3.37;2.10;;;-1.00;99.90;;;;;;5035769;28;20417;-73
2021/03/20 04:38:15;;;;;;;3.63;1.97;;;-1.00;99.90;;;;;;5034034;28;20918;-72
2021/03/20 04:41:03;;;;;;;3.87;2.03;;;-1.00;99.90;;;;;;5034394;28;20449;-71
2021/03/20 04:43:30;;;;;;;2.00;1.73;;;-1.00;99.90;;;;;;5033799;28;20441;-72
2021/03/20 04:46:04;;;;;;;2.27;2.03;;;-1.00;99.90;;;;;;5034245;28;20453;-73
2021/03/20 04:48:32;;;;;;;5.27;2.47;;;-0.90;99.90;;;;;;5034063;28;20406;-72
2021/03/20 04:51:13;;;;;;;1.90;1.80;;;-0.90;99.90;;;;;;5034147;28;20442;-73
2021/03/20 04:53:38;;;;;;;4.00;2.30;;;-0.90;99.90;;;;;;5016676;28;20422;-73
2021/03/20 04:56:14;;;;;;;3.70;2.13;;;-0.90;99.90;;;;;;5034576;28;20484;-73
2021/03/20 04:58:52;;;;;;;5.17;2.00;;;-0.90;99.90;;;;;;5034338;28;20173;-73
2021/03/20 05:01:43;;;;;;;2.50;2.13;;;-0.90;99.90;;;;;;5016380;28;20473;-72
2021/03/20 05:04:20;;;;;;;4.97;1.60;;;-0.90;99.90;;;;;;5034152;28;20910;-71
2021/03/20 05:06:46;;;;;;;5.80;2.20;;;-0.80;99.90;;;;;;5034001;28;20537;-71
2021/03/20 05:09:20;;;;;;;4.13;2.03;;;-0.80;99.90;;;;;;5034163;28;20961;-73
2021/03/20 05:11:56;;;;;;;2.90;2.07;;;-0.90;99.90;;;;;;5015068;28;20192;-74
2021/03/20 05:14:36;;;;;;;3.10;1.90;;;-0.80;99.90;;;;;;5014220;28;20406;-72
2021/03/20 05:17:03;;;;;;;4.87;2.60;;;-0.80;99.90;;;;;;5014013;28;20590;-71
2021/03/20 05:19:29;;;;;;;3.10;2.30;;;-0.80;99.90;;;;;;5026299;28;20421;-71
2021/03/20 05:21:56;;;;;;;3.30;1.70;;;-0.80;99.90;;;;;;5033961;28;20501;-72
2021/03/20 05:24:30;;;;;;;2.40;1.70;;;-0.80;99.90;;;;;;5034318;28;20604;-72
2021/03/20 05:26:58;;;;;;;3.40;3.10;;;-0.70;99.90;;;;;;5034037;28;21162;-72
2021/03/20 05:29:25;;;;;;;5.60;2.37;;;-0.70;99.90;;;;;;5033993;28;20873;-71
2021/03/20 05:31:50;;;;;;;7.50;3.00;;;-0.70;99.90;;;;;;5033596;28;20430;-72
2021/03/20 05:34:39;;;;;;;4.17;2.13;;;-0.60;99.90;;;;;;5033831;28;20497;-73
2021/03/20 05:37:06;;;;;;;3.13;2.83;;;-0.60;99.90;;;;;;5033166;28;20652;-72
2021/03/20 05:39:31;;;;;;;5.07;2.40;;;-0.60;99.90;;;;;;5033477;28;20498;-73
2021/03/20 05:42:25;;;;;;;2.97;2.00;;;-0.50;99.90;;;;;;5033667;28;20521;-72
2021/03/20 05:45:16;;;;;;;2.40;1.80;;;-0.50;99.90;;;;;;5033738;28;20183;-73
2021/03/20 05:47:57;;;;;;;3.60;2.00;;;-0.50;99.90;;;;;;5032982;28;20456;-72
2021/03/20 05:50:31;;;;;;;3.47;2.03;;;-0.40;99.90;;;;;;5025414;28;20839;-72
2021/03/20 05:53:20;;;;;;;3.90;2.17;;;-0.40;99.90;;;;;;5033388;28;20771;-73
2021/03/20 05:55:54;;;;;;;3.77;2.40;;;-0.30;99.90;;;;;;5032841;28;20899;-71
2021/03/20 05:59:13;;;;;;;6.80;2.20;;;-0.30;99.90;;;;;;5032487;28;20943;-73
2021/03/20 06:02:05;;;;;;;2.70;2.00;;;-0.20;99.90;;;;;;4995960;28;20475;-71
2021/03/20 06:04:36;;;;;;;3.00;2.07;;;-0.20;99.90;;;;;;5033150;28;21011;-72
2021/03/20 06:07:29;;;;;;;4.90;2.00;;;-0.10;99.90;;;;;;5033265;28;20414;-72
2021/03/20 06:10:13;;;;;;;4.60;1.97;;;-0.10;99.90;;;;;;5034742;28;20423;-72
2021/03/20 06:13:03;;;;;;;2.27;2.00;;;0.10;99.90;;;;;;5035139;28;20462;-72
2021/03/20 06:16:05;;;;;;;3.63;1.80;;;-0.10;99.90;;;;;;5046809;28;20483;-72
2021/03/20 06:18:49;;;;;;;2.40;1.97;;;-0.20;99.90;;;;;;5030936;28;20505;-73
2021/03/20 06:21:28;;;;;;;2.40;1.60;;;0.00;99.90;;;;;;5030320;28;20827;-73
2021/03/20 06:24:17;;;;;;;1.70;1.60;;;0.10;99.90;;;;;;5020671;28;20423;-73
2021/03/20 06:26:45;;;;;;;4.33;2.17;;;0.10;99.90;;;;;;5012676;28;20917;-72
2021/03/20 06:29:35;;;;;;;6.30;2.07;;;0.10;99.90;;;;;;5012469;28;20450;-73
2021/03/20 06:32:23;;;;;;;3.13;1.80;;;0.30;99.90;;;;;;5029565;28;20450;-73
2021/03/20 06:35:07;;;;;;;3.00;1.93;;;0.40;99.90;;;;;;5032483;28;20402;-72
2021/03/20 06:37:37;;;;;;;1.97;1.73;;;0.30;99.90;;;;;;5032398;28;20418;-73
2021/03/20 06:40:16;;;;;;;3.63;2.10;;;0.40;99.90;;;;;;5032556;28;20985;-72
2021/03/20 06:42:43;;;;;;;2.33;1.53;;;0.60;99.90;;;;;;5032589;28;20433;-73
2021/03/20 06:45:32;;;;;;;3.63;2.20;;;0.50;99.90;;;;;;5032180;28;20964;-74
2021/03/20 06:48:19;;;;;;;5.67;2.00;;;0.50;99.90;;;;;;5031997;28;20768;-73
2021/03/20 06:50:50;;;;;;;4.33;2.10;;;0.50;99.90;;;;;;5032047;28;20455;-72
2021/03/20 06:53:19;;;;;;;3.13;1.57;;;0.40;99.90;;;;;;5014387;28;20415;-71
2021/03/20 06:55:48;;;;;;;5.43;1.83;;;0.70;99.90;;;;;;5031508;28;20940;-71
2021/03/20 06:58:32;;;;;;;4.43;1.93;;;0.70;99.90;;;;;;5031640;28;20418;-71
2021/03/20 07:01:14;;;;;;;3.50;1.87;;;0.90;99.90;;;;;;5031531;28;20474;-72
2021/03/20 07:03:57;;;;;;;3.13;1.43;;;1.00;99.90;;;;;;5032026;28;20397;-71
2021/03/20 07:06:34;;;;;;;2.70;1.60;;;1.20;99.90;;;;;;5031850;28;20484;-72
2021/03/20 07:09:03;;;;;;;2.30;1.77;;;1.80;99.90;;;;;;5031786;28;20402;-72
2021/03/20 07:11:36;;;;;;;10.20;2.80;;;2.50;99.90;;;;;;5027695;28;20581;-70
2021/03/20 07:14:04;;;;;;;5.60;1.77;;;3.00;99.90;;;;;;5028321;28;20418;-72
2021/03/20 07:16:31;;;;;;;3.97;1.77;;;3.50;99.90;;;;;;5031831;28;20552;-72
2021/03/20 07:19:12;;;;;;;2.53;1.70;;;4.30;99.90;;;;;;5032183;28;20414;-71
2021/03/20 07:21:40;;;;;;;3.80;1.73;;;3.90;99.90;;;;;;5014026;28;20833;-72
2021/03/20 07:24:36;;;;;;;2.80;1.93;;;4.50;99.90;;;;;;5032387;28;20422;-72
2021/03/20 07:27:06;;;;;;;2.13;1.67;;;5.40;99.90;;;;;;5032129;28;20927;-71
2021/03/20 07:29:48;;;;;;;3.27;1.80;;;5.90;99.90;;;;;;5031529;28;20416;-74
2021/03/20 07:32:23;;;;;;;5.00;2.00;;;5.30;99.90;;;;;;5013919;28;20466;-78
2021/03/20 07:34:49;;;;;;;4.50;2.10;;;6.70;99.90;;;;;;5012472;28;20449;-75
2021/03/20 07:37:17;;;;;;;4.77;1.97;;;6.50;99.90;;;;;;5011819;28;20415;-77
2021/03/20 07:39:52;;;;;;;2.90;1.83;;;5.60;98.80;;;;;;5012349;28;20168;-73
2021/03/20 07:42:29;;;;;;;3.33;1.60;;;5.70;99.90;;;;;;5013973;28;20510;-72
2021/03/20 07:45:16;;;;;;;2.67;1.93;;;6.30;99.00;;;;;;5013439;28;20772;-73
2021/03/20 07:47:45;;;;;;;4.17;2.37;;;4.60;99.10;;;;;;5007015;28;20402;-71
2021/03/20 07:50:20;;;;;;;3.03;1.63;;;4.90;99.70;;;;;;5032190;28;20516;-73
2021/03/20 07:52:47;;;;;;;3.23;2.00;;;5.60;99.20;;;;;;5031915;28;20449;-73
2021/03/20 07:55:20;;;;;;;3.70;2.43;;;5.30;99.00;;;;;;5031607;28;20411;-73
2021/03/20 07:58:00;;;;;;;3.70;1.77;;;4.90;98.90;;;;;;5030980;28;20505;-71
2021/03/20 08:00:45;;;;;;;2.10;1.50;;;4.70;98.40;;;;;;5014220;28;20458;-72
2021/03/20 08:03:18;;;;;;;1.57;1.40;;;5.40;97.90;;;;;;5031569;28;20394;-72
2021/03/20 08:05:44;;;;;;;1.67;1.33;;;6.40;95.90;;;;;;5032053;28;20965;-72
2021/03/20 08:08:26;;;;;;;3.67;1.27;;;5.10;94.40;;;;;;5034826;28;20491;-72
2021/03/20 08:10:56;;;;;;;2.20;1.73;;;4.40;96.90;;;;;;5033625;28;20442;-71
2021/03/20 08:13:31;;;;;;;1.90;1.67;;;4.30;98.20;;;;;;5017682;28;20501;-73
2021/03/20 08:15:57;;;;;;;2.60;2.03;;;4.10;98.80;;;;;;5031662;28;20434;-72
2021/03/20 08:18:29;;;;;;;2.20;1.60;;;4.30;97.40;;;;;;5033405;28;20423;-72
2021/03/20 08:21:10;;;;;;;2.40;1.80;;;4.00;97.60;;;;;;5017368;28;20208;-71
2021/03/20 08:24:07;;;;;;;1.60;1.50;;;3.30;97.00;;;;;;5035240;28;20402;-73
2021/03/20 08:27:00;;;;;;;6.97;1.50;;;4.20;97.80;;;;;;5034738;28;20742;-72
2021/03/20 08:29:48;;;;;;;4.67;1.60;;;4.20;97.40;;;;;;5017223;28;20418;-71
2021/03/20 08:32:19;;;;;;;2.90;2.70;;;4.60;96.80;;;;;;5016401;28;20419;-71
2021/03/20 08:35:17;;;;;;;3.13;2.17;;;4.00;97.70;;;;;;5015809;28;20470;-71
2021/03/20 08:38:19;;;;;;;1.50;1.30;;;3.90;96.40;;;;;;5013995;28;20941;-71
2021/03/20 08:41:02;;;;;;;2.43;1.60;;;4.00;96.40;;;;;;5026374;28;20556;-72
2021/03/20 08:44:07;;;;;;;2.20;1.43;;;3.10;96.30;;;;;;5018448;28;20418;-72
2021/03/20 08:47:05;;;;;;;1.53;1.37;;;3.40;95.60;;;;;;4955841;28;20420;-72
2021/03/20 08:49:46;;;;;;;1.77;1.10;;;4.30;94.90;;;;;;4955177;29;20421;-71
2021/03/20 08:52:24;;;;;;;1.93;1.10;;;4.30;93.60;;;;;;5023856;28;20897;-72
2021/03/20 08:55:16;;;;;;;3.10;1.70;;;4.60;92.60;;;;;;5027571;28;20402;-72
2021/03/20 08:58:22;;;;;;;2.07;1.40;;;5.00;92.60;;;;;;5035845;28;20402;-72
2021/03/20 09:00:54;;;;;;;1.60;1.20;;;5.20;90.30;;;;;;5034109;28;20466;-72
2021/03/20 09:03:23;;;;;;;2.30;1.27;;;5.30;90.10;;;;;;5034347;28;20406;-72
2021/03/20 09:06:00;;;;;;;2.40;1.50;;;5.20;90.00;;;;;;5034250;28;20410;-71
2021/03/20 09:08:30;;;;;;;3.67;1.57;;;4.50;90.00;;;;;;5033861;28;20402;-72
2021/03/20 09:11:15;;;;;;;2.70;1.60;;;4.50;92.40;;;;;;5019903;28;20439;-71
2021/03/20 09:13:59;;;;;;;2.03;1.27;;;3.60;91.90;;;;;;5025715;28;20453;-71
2021/03/20 09:16:39;;;;;;;2.13;1.90;;;3.50;92.80;;;;;;5034090;28;20513;-71
2021/03/20 09:19:23;;;;;;;1.70;1.60;;;3.90;93.20;;;;;;5033417;28;20418;-72
2021/03/20 09:21:50;;;;;;;2.63;1.40;;;4.90;93.50;;;;;;5033958;28;20784;-72
2021/03/20 09:24:21;;;;;;;1.70;1.40;;;5.00;93.00;;;;;;5016447;28;20406;-72
2021/03/20 09:26:50;;;;;;;2.50;1.20;;;5.40;93.10;;;;;;5033519;28;20406;-72
2021/03/20 09:29:32;;;;;;;1.40;1.30;;;5.60;92.70;;;;;;5033750;28;20403;-72
2021/03/20 09:32:08;;;;;;;4.20;1.90;;;5.20;92.70;;;;;;5033659;28;20484;-72
2021/03/20 09:34:44;;;;;;;4.93;1.47;;;5.00;91.00;;;;;;5032089;28;20779;-71
2021/03/20 09:37:19;;;;;;;1.63;1.30;;;4.90;90.60;;;;;;5033281;28;20413;-72
2021/03/20 09:39:50;;;;;;;2.47;1.43;;;5.20;91.20;;;;;;5033608;28;20398;-72
2021/03/20 09:42:28;;;;;;;4.60;1.30;;;5.00;89.80;;;;;;5033730;28;20432;-71
2021/03/20 09:45:23;;;;;;;1.40;1.30;;;4.40;88.80;;;;;;5033495;28;20400;-72
2021/03/20 09:47:51;;;;;;;2.03;1.20;;;4.70;91.80;;;;;;5033268;28;20788;-71
2021/03/20 09:50:20;;;;;;;6.20;1.60;;;4.40;89.60;;;;;;5033404;28;21141;-71
2021/03/20 09:52:59;;;;;;;3.27;1.60;;;3.90;89.40;;;;;;5034177;28;20402;-76
2021/03/20 09:55:31;;;;;;;1.47;1.27;;;4.30;90.60;;;;;;5016806;28;20537;-74
2021/03/20 09:57:59;;;;;;;1.43;1.30;;;4.60;88.80;;;;;;5037084;28;20438;-77
2021/03/20 10:00:46;;;;;;;3.47;1.20;;;4.40;88.90;;;;;;5035556;28;20539;-74
2021/03/20 10:03:31;;;;;;;1.30;0.90;;;3.70;87.60;;;;;;5035499;28;20399;-78
2021/03/20 10:06:18;;;;;;;3.30;1.33;;;4.10;88.10;;;;;;5030825;28;20435;-77
2021/03/20 10:08:46;;;;;;;2.60;1.27;;;4.40;86.80;;;;;;5017505;28;20440;-75
2021/03/20 10:11:33;;;;;;;3.00;2.10;;;3.80;87.40;;;;;;5034032;28;20452;-71
2021/03/20 10:13:59;;;;;;;2.00;1.27;;;4.30;88.20;;;;;;5035210;28;20769;-71
2021/03/20 10:16:30;;;;;;;4.37;2.00;;;4.00;87.50;;;;;;5045542;28;20410;-71
2021/03/20 10:19:08;;;;;;;1.40;1.30;;;4.30;88.00;;;;;;5044977;28;20429;-72
2021/03/20 10:21:33;;;;;;;3.50;1.50;;;4.20;89.50;;;;;;5045775;28;20462;-71
2021/03/20 10:24:19;;;;;;;6.10;1.40;;;4.00;87.40;;;;;;5032936;28;20452;-71
2021/03/20 10:26:59;;;;;;;2.60;2.40;;;4.50;88.70;;;;;;5033065;28;20171;-72
2021/03/20 10:29:37;;;;;;;1.30;1.20;;;4.30;88.30;;;;;;5014073;28;20745;-71
2021/03/20 10:32:16;;;;;;;4.50;1.80;;;3.20;86.20;;;;;;5015879;28;20755;-71
2021/03/20 10:34:49;;;;;;;126.60;62.20;;;3.80;90.40;;;;;;5012914;28;20407;-72
2021/03/20 10:37:15;;;;;;;2.43;1.97;;;5.00;99.70;;;;;;5012284;28;20405;-72
2021/03/20 10:39:44;;;;;;;1.90;1.43;;;4.70;87.80;;;;;;5012497;28;20403;-72
2021/03/20 10:42:25;;;;;;;3.47;1.47;;;4.60;86.00;;;;;;5013019;28;20195;-72
2021/03/20 10:44:56;;;;;;;2.77;2.10;;;5.00;88.10;;;;;;5012785;28;20442;-72
2021/03/20 10:47:32;;;;;;;3.20;1.30;;;5.40;84.70;;;;;;5022453;28;20446;-72
2021/03/20 10:50:18;;;;;;;1.90;1.20;;;4.30;83.30;;;;;;5032036;28;20508;-71
2021/03/20 10:52:43;;;;;;;4.10;1.50;;;4.20;84.10;;;;;;5032609;28;20410;-72
2021/03/20 10:55:24;;;;;;;4.03;1.40;;;4.70;82.70;;;;;;5032132;28;20813;-72
2021/03/20 10:57:51;;;;;;;1.90;1.43;;;4.60;82.50;;;;;;5032056;28;20211;-72
2021/03/20 11:00:21;;;;;;;2.03;1.47;;;4.70;84.10;;;;;;5031764;28;20465;-72
2021/03/20 11:02:47;;;;;;;3.27;1.97;;;4.40;83.30;;;;;;5032655;28;20763;-71
2021/03/20 11:05:28;;;;;;;3.00;1.57;;;4.50;83.10;;;;;;5032010;28;20414;-70
2021/03/20 11:08:01;;;;;;;2.93;1.73;;;4.60;82.30;;;;;;5032017;28;20407;-70
2021/03/20 11:10:37;;;;;;;1.43;1.33;;;4.20;83.10;;;;;;5030237;28;20794;-71
2021/03/20 11:13:16;;;;;;;2.23;1.83;;;4.30;84.50;;;;;;5021375;28;20822;-70
2021/03/20 11:15:44;;;;;;;1.97;1.63;;;4.70;81.30;;;;;;5023855;28;20444;-71
2021/03/20 11:18:26;;;;;;;1.60;1.20;;;4.50;81.00;;;;;;5020536;28;20414;-71
2021/03/20 11:20:51;;;;;;;2.20;1.80;;;4.40;81.60;;;;;;5013954;28;20458;-71
2021/03/20 11:23:29;;;;;;;5.83;2.10;;;4.70;82.30;;;;;;5034373;28;20425;-71
2021/03/20 11:25:55;;;;;;;6.53;2.00;;;4.60;81.30;;;;;;5051822;28;20162;-70
2021/03/20 11:28:30;;;;;;;2.10;1.30;;;5.10;81.30;;;;;;5051473;28;20916;-71
2021/03/20 11:30:58;;;;;;;4.20;2.87;;;5.40;79.50;;;;;;5043778;28;20492;-69
2021/03/20 11:33:29;;;;;;;3.80;3.10;;;5.60;81.30;;;;;;5011051;28;20510;-72
2021/03/20 11:35:58;;;;;;;4.67;1.67;;;5.50;83.30;;;;;;5027273;28;20898;-72
2021/03/20 11:38:24;;;;;;;1.57;1.40;;;4.90;80.40;;;;;;5031806;28;20406;-70
2021/03/20 11:41:01;;;;;;;3.33;1.67;;;4.50;78.00;;;;;;5033105;28;20462;-70
2021/03/20 11:43:47;;;;;;;3.47;1.90;;;4.10;79.60;;;;;;5035734;28;20945;-71
2021/03/20 11:46:17;;;;;;;3.07;1.47;;;4.10;81.20;;;;;;5035269;28;20409;-73
2021/03/20 11:48:50;;;;;;;3.00;1.40;;;4.10;79.10;;;;;;5035562;28;20872;-72
2021/03/20 11:51:26;;;;;;;2.70;1.70;;;4.60;81.40;;;;;;5035698;28;20485;-71
2021/03/20 11:53:54;;;;;;;2.20;1.90;;;4.40;79.80;;;;;;5035816;28;20402;-71
2021/03/20 11:56:26;;;;;;;2.07;1.77;;;4.20;80.10;;;;;;5027190;28;20442;-72
2021/03/20 11:58:55;;;;;;;2.50;1.73;;;4.50;80.60;;;;;;5031093;28;20422;-69
2021/03/20 12:01:41;;;;;;;3.20;1.43;;;4.90;80.40;;;;;;5032652;28;20541;-72
2021/03/20 12:04:09;;;;;;;5.07;2.30;;;4.30;77.40;;;;;;5015489;28;20503;-72
2021/03/20 12:06:39;;;;;;;4.80;2.20;;;4.50;80.70;;;;;;5015544;28;20510;-71
2021/03/20 12:09:24;;;;;;;2.77;2.00;;;4.60;80.20;;;;;;5031032;28;20726;-71
2021/03/20 12:11:52;;;;;;;4.90;2.70;;;4.50;80.40;;;;;;5030001;28;20531;-71
2021/03/20 12:14:34;;;;;;;3.40;1.90;;;4.80;82.20;;;;;;5036253;28;20417;-71
2021/03/20 12:17:05;;;;;;;2.33;1.77;;;4.60;78.50;;;;;;5035062;28;20544;-71
2021/03/20 12:19:33;;;;;;;3.13;1.70;;;4.70;80.90;;;;;;5035041;28;20924;-74
2021/03/20 12:21:58;;;;;;;2.30;1.60;;;4.30;78.50;;;;;;5035097;28;20592;-72
2021/03/20 12:24:25;;;;;;;2.10;1.90;;;4.40;80.60;;;;;;5035264;28;20889;-72
2021/03/20 12:26:50;;;;;;;3.93;1.73;;;4.50;79.90;;;;;;5035103;28;20183;-71
2021/03/20 12:29:30;;;;;;;2.10;1.93;;;4.20;77.60;;;;;;5034767;28;20398;-72
2021/03/20 12:32:15;;;;;;;4.20;2.37;;;4.00;78.80;;;;;;5027497;28;20548;-72
2021/03/20 12:34:41;;;;;;;1.93;1.80;;;4.40;81.50;;;;;;5034810;28;20426;-70
2021/03/20 12:37:17;;;;;;;6.10;2.33;;;4.40;80.30;;;;;;5034545;28;20405;-70
2021/03/20 12:39:42;;;;;;;3.73;3.00;;;4.60;82.10;;;;;;5034536;28;20230;-70
2021/03/20 12:42:08;;;;;;;7.07;4.27;;;4.70;82.20;;;;;;5032065;28;20419;-72
2021/03/20 12:44:44;;;;;;;6.43;4.33;;;5.20;83.30;;;;;;5033683;28;20172;-70
2021/03/20 12:47:17;;;;;;;3.43;2.10;;;5.60;81.70;;;;;;5026089;28;20651;-71
2021/03/20 12:49:43;;;;;;;2.23;2.03;;;4.90;79.80;;;;;;5031562;28;20417;-71
2021/03/20 12:52:15;;;;;;;3.70;1.60;;;4.50;81.50;;;;;;5034640;28;20394;-71
2021/03/20 12:54:44;;;;;;;5.03;3.10;;;4.70;82.40;;;;;;5035726;28;20438;-71
2021/03/20 12:57:21;;;;;;;2.50;2.30;;;4.80;80.90;;;;;;5034830;28;20774;-71
2021/03/20 12:59:47;;;;;;;1.90;1.70;;;4.70;82.80;;;;;;5035341;28;20402;-72
2021/03/20 13:02:13;;;;;;;2.13;1.50;;;4.40;81.30;;;;;;5035395;28;20820;-73
2021/03/20 13:04:40;;;;;;;2.30;1.57;;;4.70;83.30;;;;;;5035251;28;20402;-72
2021/03/20 13:07:07;;;;;;;2.97;2.70;;;4.90;84.50;;;;;;5034208;28;20470;-71
2021/03/20 13:09:33;;;;;;;5.23;3.63;;;4.50;83.20;;;;;;5033936;28;20457;-71
2021/03/20 13:11:58;;;;;;;5.50;3.47;;;4.60;84.40;;;;;;5026294;28;20431;-71
2021/03/20 13:14:24;;;;;;;4.20;3.00;;;4.70;84.70;;;;;;5033751;28;20176;-71
2021/03/20 13:16:49;;;;;;;3.13;2.20;;;4.70;83.80;;;;;;5033867;28;20171;-70
2021/03/20 13:19:15;;;;;;;2.50;2.10;;;4.50;82.20;;;;;;5033960;28;20172;-72
2021/03/20 13:21:40;;;;;;;1.97;1.50;;;4.50;84.20;;;;;;5033808;28;20218;-69
2021/03/20 13:24:06;;;;;;;2.10;1.70;;;4.50;81.60;;;;;;5033888;28;20175;-72
2021/03/20 13:26:32;;;;;;;2.47;1.70;;;4.30;82.60;;;;;;5033766;28;20535;-70
2021/03/20 13:28:58;;;;;;;2.60;1.63;;;4.80;84.90;;;;;;5033754;28;20160;-70
2021/03/20 13:31:24;;;;;;;2.50;1.97;;;4.90;85.20;;;;;;5003979;28;20218;-72